Aspen-Pitkin Co/Sardy Field
KASE : now visible

Airfield :











YOU CAN JOIN US ON...

 
LOGIN :

Register | Disclaimer

   EN    FR    IT 

 









Legend :    VFR   Marginal VFR   IFR   Intensive IFR   Very Intensive IFR
Visi :
Ceiling :
>= 8 km
>= 3000ft
5 to 8 km
1000 to 3000 ft
1500m to 5 km
500 to 1000 ft
800 to 1500m
200 to 500 ft
< 800m
< 200 ft
Symbols :   Thunderstorms  Fog  Heavy snow  Heavy precipitations  Wind > 20 kt






- Airport Elevation : 7820 ft


KASE - Aspen-Pitkin Co/Sardy Field

CURRENT METAR :
  • 112053Z 22008G19KT 190V260 10SM CLR 29/M11 A3024 RMK AO2 SLP101 T02891106 58009

EXPIRED METARs :
  • 111953Z 19012G27KT 10SM CLR 29/M09 A3026 RMK AO2 PK WND 23029/1943 SLP103 T02891094
  • 111853Z 22014G24KT 10SM CLR 28/M08 A3027 RMK AO2 SLP107 T02831083

TAF KASE
Valid from the 11 at 18:00 until the 12 at 18:00 UTC


111740Z 1118/1218 21003KT P6SM BKN100
FM111900 28012G22KT P6SM BKN100
FM120200 22009KT P6SM SCT120
FM120600 19007KT P6SM FEW120
KZDV FIR / North America



MET'MAP, your aeronautical weather chart ! - Copyright ORBIFLY December 2007 - Disclaimer

ORBIFLY MET'MAP TEAM :

Programming & Development : Alexandra Zaïnal
Concept & original design : Baudouin d'Aumeries
Assistance for programming : Marc-Olivier Méhu
Technical & hardware support : Manuel Goepfert

Contact : metmap@orbifly.com




SOURCES & CREDITS :

   NOAA       Earth
Advisory